createdAt,value
2023-04-26T00:00:01.134Z,8.90
2023-04-26T00:02:28.211Z,8.90
2023-04-26T00:04:56.611Z,8.90
2023-04-26T00:07:28.795Z,8.90
2023-04-26T00:09:55.790Z,8.90
2023-04-26T00:12:22.761Z,8.90
2023-04-26T00:14:49.798Z,8.90
2023-04-26T00:17:16.913Z,9.00
2023-04-26T00:19:43.838Z,9.00
2023-04-26T00:22:11.053Z,9.10
2023-04-26T00:24:37.964Z,9.10
2023-04-26T00:27:10.355Z,9.10
2023-04-26T00:29:37.738Z,9.10
2023-04-26T00:32:05.098Z,9.10
2023-04-26T00:34:36.532Z,9.10
2023-04-26T00:37:04.839Z,9.10
2023-04-26T00:39:32.022Z,9.10
2023-04-26T00:41:58.991Z,9.00
2023-04-26T00:44:25.939Z,8.90
2023-04-26T00:46:53.920Z,8.80
2023-04-26T00:49:24.012Z,8.80
2023-04-26T00:51:52.692Z,8.70
2023-04-26T00:54:21.185Z,8.70
2023-04-26T00:56:51.971Z,8.60
2023-04-26T00:59:20.420Z,8.60
2023-04-26T01:01:49.032Z,8.70
2023-04-26T01:04:16.874Z,8.60
2023-04-26T01:06:44.869Z,8.60
2023-04-26T01:09:14.905Z,8.60
2023-04-26T01:11:43.722Z,8.60
2023-04-26T01:14:11.393Z,8.70
2023-04-26T01:16:39.599Z,8.70
2023-04-26T01:19:13.444Z,8.60
2023-04-26T01:21:41.185Z,8.60
2023-04-26T01:24:11.132Z,8.60
2023-04-26T01:26:48.336Z,8.60
2023-04-26T01:29:15.645Z,8.70
2023-04-26T01:31:42.690Z,8.70
2023-04-26T01:34:09.718Z,8.70
2023-04-26T01:36:37.067Z,8.70
2023-04-26T01:39:04.378Z,8.70
2023-04-26T01:41:31.514Z,8.70
2023-04-26T01:44:01.382Z,8.70
2023-04-26T01:46:28.451Z,8.70
2023-04-26T01:48:55.479Z,8.70
2023-04-26T01:51:23.478Z,8.70
2023-04-26T01:53:50.420Z,8.70
2023-04-26T01:56:18.288Z,8.70
2023-04-26T01:58:45.460Z,8.60
2023-04-26T02:01:12.547Z,8.60
2023-04-26T02:03:39.545Z,8.60
2023-04-26T02:06:06.746Z,8.60
2023-04-26T02:08:33.904Z,8.60
2023-04-26T02:11:01.014Z,8.60
2023-04-26T02:13:27.923Z,8.60
2023-04-26T02:15:54.948Z,8.60
2023-04-26T02:18:22.680Z,8.60
2023-04-26T02:20:50.707Z,8.70
2023-04-26T02:23:17.898Z,8.70
2023-04-26T02:25:49.516Z,8.70
2023-04-26T02:28:17.618Z,8.70
2023-04-26T02:30:44.938Z,8.60
2023-04-26T02:33:11.876Z,8.50
2023-04-26T02:35:39.361Z,8.60
2023-04-26T02:38:07.055Z,8.50
2023-04-26T02:40:34.163Z,8.50
2023-04-26T02:43:01.224Z,8.40
2023-04-26T02:45:28.270Z,8.40
2023-04-26T02:47:55.512Z,8.40
2023-04-26T02:50:22.731Z,8.30
2023-04-26T02:52:50.829Z,8.30
2023-04-26T02:55:17.770Z,8.30
2023-04-26T02:57:44.734Z,8.30
2023-04-26T03:00:14.311Z,8.20
2023-04-26T03:02:41.985Z,8.10
2023-04-26T03:05:09.805Z,8.10
2023-04-26T03:07:37.404Z,8.00
2023-04-26T03:10:05.499Z,8.00
2023-04-26T03:12:33.558Z,7.90
2023-04-26T03:15:04.017Z,7.90
2023-04-26T03:17:31.560Z,7.80
2023-04-26T03:20:00.549Z,7.70
2023-04-26T03:22:28.943Z,7.60
2023-04-26T03:24:57.076Z,7.60
2023-04-26T03:27:26.815Z,7.50
2023-04-26T03:29:54.252Z,7.50
2023-04-26T03:32:21.869Z,7.50
2023-04-26T03:34:49.948Z,7.50
2023-04-26T03:37:17.208Z,7.50
2023-04-26T03:39:47.975Z,7.50
2023-04-26T03:42:15.082Z,7.50
2023-04-26T03:44:42.065Z,7.60
2023-04-26T03:47:08.981Z,7.50
2023-04-26T03:49:38.605Z,7.60
2023-04-26T03:52:05.815Z,7.60
2023-04-26T03:54:34.340Z,7.50
2023-04-26T03:57:01.599Z,7.60
2023-04-26T03:59:28.907Z,7.50
2023-04-26T04:01:56.067Z,7.50
2023-04-26T04:04:23.547Z,7.50
2023-04-26T04:06:51.291Z,7.50
2023-04-26T04:09:18.429Z,7.50
2023-04-26T04:11:47.378Z,7.50
2023-04-26T04:14:14.522Z,7.50
2023-04-26T04:16:41.546Z,7.40
2023-04-26T04:19:08.838Z,7.40
2023-04-26T04:21:35.983Z,7.40
2023-04-26T04:24:04.040Z,7.40
2023-04-26T04:26:31.119Z,7.40
2023-04-26T04:29:08.606Z,7.40
2023-04-26T04:31:38.183Z,7.40
2023-04-26T04:34:05.795Z,7.40
2023-04-26T04:36:34.564Z,7.40
2023-04-26T04:39:03.366Z,7.40
2023-04-26T04:41:30.631Z,7.50
2023-04-26T04:43:57.713Z,7.50
2023-04-26T04:46:26.052Z,7.60
2023-04-26T04:48:53.644Z,7.60
2023-04-26T04:51:21.336Z,7.70
2023-04-26T04:53:48.553Z,7.70
2023-04-26T04:56:18.463Z,7.80
2023-04-26T04:58:46.454Z,7.80
2023-04-26T05:01:17.672Z,7.90
2023-04-26T05:03:51.568Z,7.90
2023-04-26T05:06:21.069Z,8.00
2023-04-26T05:08:48.005Z,8.10
2023-04-26T05:11:16.300Z,8.10
2023-04-26T05:13:43.437Z,8.20
2023-04-26T05:16:11.205Z,8.20
2023-04-26T05:18:38.744Z,8.20
2023-04-26T05:21:08.179Z,8.40
2023-04-26T05:23:37.137Z,8.40
2023-04-26T05:26:13.366Z,8.50
2023-04-26T05:28:53.648Z,8.50
2023-04-26T05:31:40.808Z,8.60
2023-04-26T05:34:13.785Z,8.70
2023-04-26T05:36:41.852Z,8.70
2023-04-26T05:39:09.192Z,8.70
2023-04-26T05:41:36.439Z,8.80
2023-04-26T05:44:03.742Z,8.80
2023-04-26T05:46:30.986Z,8.80
2023-04-26T05:48:57.950Z,8.80
2023-04-26T05:51:25.039Z,8.90
2023-04-26T05:53:52.486Z,8.90
2023-04-26T05:56:19.902Z,9.00
2023-04-26T05:58:47.758Z,9.00
2023-04-26T06:01:15.519Z,9.10
2023-04-26T06:03:42.781Z,9.20
2023-04-26T06:06:09.874Z,9.30
2023-04-26T06:08:39.561Z,9.30
2023-04-26T06:11:06.540Z,9.40
2023-04-26T06:13:33.495Z,9.40
2023-04-26T06:16:00.876Z,9.40
2023-04-26T06:18:27.934Z,9.30
2023-04-26T06:20:54.871Z,9.30
2023-04-26T06:23:21.967Z,9.40
2023-04-26T06:25:49.482Z,9.40
2023-04-26T06:28:16.816Z,9.50
2023-04-26T06:30:44.096Z,9.70
2023-04-26T06:33:11.294Z,9.70
2023-04-26T06:35:43.210Z,9.80
2023-04-26T06:38:14.535Z,9.80
2023-04-26T06:40:41.766Z,9.90
2023-04-26T06:43:09.627Z,9.90
2023-04-26T06:45:43.529Z,10.00
2023-04-26T06:48:13.175Z,10.00
2023-04-26T06:50:40.561Z,10.10
2023-04-26T06:53:08.702Z,10.10
2023-04-26T06:55:35.971Z,10.20
2023-04-26T06:58:03.075Z,10.20
2023-04-26T07:00:30.839Z,10.40
2023-04-26T07:02:58.164Z,10.50
2023-04-26T07:05:25.729Z,10.80
2023-04-26T07:07:53.365Z,11.00
2023-04-26T07:10:21.204Z,11.20
2023-04-26T07:12:48.191Z,11.30
2023-04-26T07:15:15.193Z,11.50
2023-04-26T07:17:42.226Z,11.60
2023-04-26T07:20:13.141Z,11.60
2023-04-26T07:22:40.127Z,11.60
2023-04-26T07:25:07.521Z,11.60
2023-04-26T07:27:34.509Z,11.60
2023-04-26T07:30:01.664Z,11.70
2023-04-26T07:32:28.710Z,11.70
2023-04-26T07:34:57.145Z,12.00
2023-04-26T07:37:24.146Z,12.20
2023-04-26T07:39:51.082Z,12.60
2023-04-26T07:42:19.171Z,13.10
2023-04-26T07:44:49.366Z,13.30
2023-04-26T07:47:16.593Z,13.30
2023-04-26T07:49:47.642Z,13.60
2023-04-26T07:52:14.895Z,13.90
2023-04-26T07:54:46.752Z,14.50
2023-04-26T07:57:13.955Z,15.10
2023-04-26T07:59:40.887Z,15.60
2023-04-26T08:02:07.918Z,16.20
2023-04-26T08:04:35.284Z,16.80
2023-04-26T08:07:02.777Z,17.00
2023-04-26T08:09:30.852Z,16.90
2023-04-26T08:11:58.286Z,16.90
2023-04-26T08:14:25.433Z,16.90
2023-04-26T08:16:52.456Z,17.30
2023-04-26T08:19:19.522Z,17.60
2023-04-26T08:21:46.889Z,17.60
2023-04-26T08:24:13.853Z,17.30
2023-04-26T08:26:41.710Z,17.30
2023-04-26T08:29:08.954Z,17.40
2023-04-26T08:31:36.379Z,17.40
2023-04-26T08:34:03.949Z,17.60
2023-04-26T08:36:32.549Z,18.00
2023-04-26T08:39:00.211Z,18.00
2023-04-26T08:41:28.274Z,17.70
2023-04-26T08:43:58.875Z,17.40
2023-04-26T08:46:29.518Z,17.00
2023-04-26T08:49:27.894Z,16.70
2023-04-26T08:51:56.864Z,16.50
2023-04-26T08:54:25.393Z,16.30
2023-04-26T08:56:54.627Z,16.20
2023-04-26T08:59:23.636Z,16.20
2023-04-26T09:01:51.095Z,16.30
2023-04-26T09:04:18.184Z,16.30
2023-04-26T09:06:46.268Z,16.30
2023-04-26T09:09:17.737Z,16.20
2023-04-26T09:11:58.004Z,16.10
2023-04-26T09:14:25.486Z,15.90
2023-04-26T09:16:53.252Z,15.90
2023-04-26T09:19:35.902Z,15.80
2023-04-26T09:22:03.525Z,15.80
2023-04-26T09:24:52.316Z,15.90
2023-04-26T09:27:19.946Z,16.10
2023-04-26T09:30:03.882Z,16.60
2023-04-26T09:32:46.326Z,17.60
2023-04-26T09:35:31.100Z,18.90
2023-04-26T09:38:10.459Z,20.10
2023-04-26T09:40:46.495Z,20.90
2023-04-26T09:43:18.852Z,21.60
2023-04-26T09:45:51.270Z,22.90
2023-04-26T09:48:33.338Z,24.00
2023-04-26T09:51:12.300Z,24.60
2023-04-26T09:53:47.594Z,24.50
2023-04-26T09:56:14.591Z,24.20
2023-04-26T09:58:47.428Z,23.80
2023-04-26T10:01:19.214Z,23.10
2023-04-26T10:03:47.607Z,22.90
2023-04-26T10:06:15.190Z,22.80
2023-04-26T10:08:43.546Z,22.40
2023-04-26T10:11:11.628Z,21.70
2023-04-26T10:13:39.783Z,21.20
2023-04-26T10:16:07.225Z,20.80
2023-04-26T10:18:34.282Z,20.60
2023-04-26T10:21:21.584Z,20.40
2023-04-26T10:23:49.696Z,20.30
2023-04-26T10:26:49.736Z,20.60
2023-04-26T10:29:17.073Z,21.50
2023-04-26T10:32:09.509Z,22.20
2023-04-26T10:34:37.954Z,22.70
2023-04-26T10:37:16.440Z,22.50
2023-04-26T10:39:45.452Z,22.20
2023-04-26T10:42:30.569Z,22.00
2023-04-26T10:44:59.144Z,22.50
2023-04-26T10:47:29.727Z,23.10
2023-04-26T10:50:11.987Z,24.00
2023-04-26T10:53:04.660Z,24.90
2023-04-26T10:55:43.038Z,25.50
2023-04-26T10:58:32.990Z,25.70
2023-04-26T11:01:08.340Z,25.50
2023-04-26T11:03:36.045Z,25.30
2023-04-26T11:06:09.677Z,25.40
2023-04-26T11:08:37.023Z,25.20
2023-04-26T11:11:09.083Z,24.60
2023-04-26T11:13:38.689Z,24.00
2023-04-26T11:16:08.949Z,23.30
2023-04-26T11:18:38.790Z,22.80
2023-04-26T11:21:07.331Z,22.50
2023-04-26T11:23:36.188Z,22.20
2023-04-26T11:26:06.027Z,22.20
2023-04-26T11:28:34.714Z,22.00
2023-04-26T11:31:06.441Z,22.00
2023-04-26T11:33:37.016Z,22.10
2023-04-26T11:36:04.573Z,22.20
2023-04-26T11:38:31.668Z,22.00
2023-04-26T11:41:03.276Z,21.90
2023-04-26T11:43:36.969Z,21.70
2023-04-26T11:46:05.647Z,21.50
2023-04-26T11:48:34.973Z,21.50
2023-04-26T11:51:04.593Z,21.70
2023-04-26T11:53:43.075Z,22.50
2023-04-26T11:56:22.021Z,24.10
2023-04-26T11:58:51.255Z,25.00
2023-04-26T12:01:23.660Z,25.40
2023-04-26T12:03:56.722Z,26.00
2023-04-26T12:06:43.886Z,26.10
2023-04-26T12:09:14.034Z,27.30
2023-04-26T12:11:41.379Z,28.10
2023-04-26T12:14:10.047Z,28.50
2023-04-26T12:16:37.802Z,29.30
2023-04-26T12:19:08.929Z,30.20
2023-04-26T12:21:45.282Z,30.70
2023-04-26T12:24:26.309Z,30.30
2023-04-26T12:26:54.221Z,29.60
2023-04-26T12:29:21.112Z,29.20
2023-04-26T12:31:48.236Z,29.10
2023-04-26T12:34:15.355Z,28.90
2023-04-26T12:36:45.081Z,28.60
2023-04-26T12:39:14.465Z,28.00
2023-04-26T12:41:42.170Z,27.30
2023-04-26T12:44:10.537Z,26.60
2023-04-26T12:46:37.698Z,25.90
2023-04-26T12:49:05.107Z,25.60
2023-04-26T12:51:32.127Z,25.60
2023-04-26T12:53:59.115Z,25.80
2023-04-26T12:56:26.289Z,26.10
2023-04-26T12:58:53.255Z,26.00
2023-04-26T13:01:20.264Z,26.10
2023-04-26T13:03:47.484Z,26.00
2023-04-26T13:06:14.634Z,25.70
2023-04-26T13:08:41.654Z,25.30
2023-04-26T13:11:08.761Z,25.00
2023-04-26T13:13:43.123Z,25.00
2023-04-26T13:16:12.750Z,25.80
2023-04-26T13:18:40.694Z,27.10
2023-04-26T13:21:07.920Z,27.70
2023-04-26T13:23:34.987Z,27.60
2023-04-26T13:26:01.888Z,27.30
2023-04-26T13:28:28.961Z,26.90
2023-04-26T13:30:56.220Z,26.90
2023-04-26T13:33:23.340Z,26.80
2023-04-26T13:35:50.550Z,27.00
2023-04-26T13:38:17.834Z,27.70
2023-04-26T13:40:45.061Z,28.30
2023-04-26T13:43:12.038Z,28.70
2023-04-26T13:45:38.995Z,29.40
2023-04-26T13:48:06.208Z,30.20
2023-04-26T13:50:33.223Z,30.40
2023-04-26T13:53:00.218Z,30.50
2023-04-26T13:55:27.303Z,31.10
2023-04-26T13:57:54.340Z,31.40
2023-04-26T14:00:21.735Z,31.20
2023-04-26T14:02:49.969Z,30.40
2023-04-26T14:05:17.828Z,29.70
2023-04-26T14:07:44.903Z,28.60
2023-04-26T14:10:12.219Z,28.40
2023-04-26T14:12:39.844Z,28.90
2023-04-26T14:15:07.767Z,29.20
2023-04-26T14:17:34.880Z,30.00
2023-04-26T14:20:02.220Z,30.80
2023-04-26T14:22:29.448Z,30.70
2023-04-26T14:24:56.719Z,30.30
2023-04-26T14:27:23.749Z,29.70
2023-04-26T14:29:50.664Z,29.00
2023-04-26T14:32:17.947Z,28.30
2023-04-26T14:34:44.889Z,27.70
2023-04-26T14:37:11.823Z,27.20
2023-04-26T14:39:38.788Z,27.00
2023-04-26T14:42:05.878Z,26.70
2023-04-26T14:44:32.846Z,26.60
2023-04-26T14:46:59.854Z,26.50
2023-04-26T14:49:26.770Z,26.80
2023-04-26T14:51:53.975Z,27.60
2023-04-26T14:54:21.398Z,28.60
2023-04-26T14:56:48.925Z,29.80
2023-04-26T14:59:24.286Z,30.80
2023-04-26T15:01:53.438Z,31.40
2023-04-26T15:04:20.714Z,31.80
2023-04-26T15:06:47.722Z,32.10
2023-04-26T15:09:14.957Z,32.50
2023-04-26T15:11:41.865Z,32.70
2023-04-26T15:14:08.768Z,32.90
2023-04-26T15:16:35.700Z,32.90
2023-04-26T15:19:02.807Z,32.30
2023-04-26T15:21:30.024Z,31.70
2023-04-26T15:23:56.937Z,30.90
2023-04-26T15:26:23.918Z,29.90
2023-04-26T15:28:51.214Z,29.00
2023-04-26T15:31:18.183Z,28.10
2023-04-26T15:33:45.169Z,27.30
2023-04-26T15:36:12.150Z,26.50
2023-04-26T15:38:42.184Z,25.80
2023-04-26T15:41:09.209Z,25.20
2023-04-26T15:43:36.217Z,24.60
2023-04-26T15:46:03.178Z,24.20
2023-04-26T15:48:30.809Z,23.80
2023-04-26T15:51:05.209Z,23.40
2023-04-26T15:53:32.185Z,22.90
2023-04-26T15:55:59.134Z,22.50
2023-04-26T15:58:26.080Z,22.20
2023-04-26T16:00:53.014Z,22.00
2023-04-26T16:03:20.247Z,21.70
2023-04-26T16:05:47.425Z,21.50
2023-04-26T16:08:19.378Z,21.40
2023-04-26T16:10:51.556Z,21.30
2023-04-26T16:13:19.252Z,21.20
2023-04-26T16:15:46.619Z,21.10
2023-04-26T16:18:13.858Z,21.00
2023-04-26T16:20:41.191Z,20.90
2023-04-26T16:23:08.141Z,20.80
2023-04-26T16:25:34.980Z,20.80
2023-04-26T16:28:01.954Z,20.60
2023-04-26T16:30:28.939Z,20.50
2023-04-26T16:32:56.253Z,20.40
2023-04-26T16:35:23.973Z,20.30
2023-04-26T16:37:51.704Z,20.30
2023-04-26T16:40:21.363Z,20.30
2023-04-26T16:42:51.313Z,20.10
2023-04-26T16:45:21.333Z,20.10
2023-04-26T16:47:48.754Z,20.00
2023-04-26T16:50:16.979Z,20.00
2023-04-26T16:58:30.937Z,19.70
2023-04-26T17:00:57.910Z,19.50
2023-04-26T17:03:26.419Z,19.50
2023-04-26T17:05:58.815Z,19.40
2023-04-26T17:08:30.926Z,19.40
2023-04-26T17:10:58.008Z,19.30
2023-04-26T17:13:30.620Z,19.30
2023-04-26T17:15:57.760Z,19.30
2023-04-26T17:18:25.978Z,19.30
2023-04-26T17:20:56.322Z,19.20
2023-04-26T17:23:23.345Z,19.20
2023-04-26T17:25:51.538Z,19.20
2023-04-26T17:28:19.616Z,19.10
2023-04-26T17:30:46.882Z,19.00
2023-04-26T17:33:14.423Z,18.90
2023-04-26T17:35:41.950Z,18.80
2023-04-26T17:38:08.850Z,18.70
2023-04-26T17:40:43.141Z,18.70
2023-04-26T17:43:16.525Z,18.60
2023-04-26T17:45:46.738Z,18.60
2023-04-26T17:48:14.371Z,18.50
2023-04-26T17:50:41.311Z,18.40
2023-04-26T17:53:08.717Z,18.30
2023-04-26T17:55:36.499Z,18.20
2023-04-26T17:58:03.526Z,18.10
2023-04-26T18:00:30.673Z,18.10
2023-04-26T18:03:02.077Z,18.00
2023-04-26T18:05:29.179Z,17.90
2023-04-26T18:07:56.566Z,17.80
2023-04-26T18:10:23.449Z,17.70
2023-04-26T18:12:50.399Z,17.50
2023-04-26T18:15:17.458Z,17.40
2023-04-26T18:17:44.332Z,17.20
2023-04-26T18:20:13.622Z,17.10
2023-04-26T18:22:41.776Z,17.00
2023-04-26T18:25:08.985Z,16.90
2023-04-26T18:27:35.853Z,16.80
2023-04-26T18:30:03.166Z,16.70
2023-04-26T18:32:30.116Z,16.70
2023-04-26T18:35:16.236Z,16.50
2023-04-26T18:37:48.447Z,16.50
2023-04-26T18:40:15.374Z,16.40
2023-04-26T18:42:42.472Z,16.40
2023-04-26T18:45:09.703Z,16.30
2023-04-26T18:47:36.746Z,16.20
2023-04-26T18:50:04.316Z,16.20
2023-04-26T18:52:31.462Z,16.10
2023-04-26T18:54:58.298Z,16.00
2023-04-26T18:57:31.841Z,15.90
2023-04-26T19:00:09.315Z,15.90
2023-04-26T19:02:41.160Z,15.70
2023-04-26T19:05:13.235Z,15.70
2023-04-26T19:07:41.833Z,15.60
2023-04-26T19:10:09.189Z,15.60
2023-04-26T19:12:36.543Z,15.50
2023-04-26T19:15:07.617Z,15.40
2023-04-26T19:17:34.803Z,15.40
2023-04-26T19:20:02.219Z,15.30
2023-04-26T19:22:31.686Z,15.30
2023-04-26T19:25:02.751Z,15.20
2023-04-26T19:27:31.932Z,15.20
2023-04-26T19:30:00.141Z,15.20
2023-04-26T19:32:29.469Z,15.10
2023-04-26T19:34:56.627Z,15.20
2023-04-26T19:37:24.320Z,15.10
2023-04-26T19:39:51.677Z,15.10
2023-04-26T19:55:04.436Z,15.00
2023-04-26T19:57:31.393Z,14.90
2023-04-26T19:59:58.497Z,14.90
2023-04-26T20:02:26.018Z,14.90
2023-04-26T20:04:54.028Z,14.80
2023-04-26T20:07:25.964Z,14.80
2023-04-26T20:09:53.146Z,14.80
2023-04-26T20:12:20.442Z,14.70
2023-04-26T20:14:47.894Z,14.80
2023-04-26T20:17:15.695Z,14.70
2023-04-26T20:19:43.247Z,14.70
2023-04-26T20:22:10.957Z,14.70
2023-04-26T20:24:37.956Z,14.70
2023-04-26T20:27:04.986Z,14.70
2023-04-26T20:29:31.991Z,14.70
2023-04-26T20:31:59.014Z,14.60
2023-04-26T20:34:26.728Z,14.60
2023-04-26T20:36:53.761Z,14.50
2023-04-26T20:39:21.878Z,14.50
2023-04-26T20:41:48.990Z,14.50
2023-04-26T20:44:18.291Z,14.40
2023-04-26T20:46:45.658Z,14.50
2023-04-26T20:49:12.816Z,14.40
2023-04-26T20:51:39.852Z,14.40
2023-04-26T20:54:06.936Z,14.40
2023-04-26T20:56:34.281Z,14.30
2023-04-26T20:59:01.783Z,14.30
2023-04-26T21:01:28.794Z,14.30
2023-04-26T21:03:59.716Z,14.30
2023-04-26T21:06:27.942Z,14.20
2023-04-26T21:08:55.210Z,14.20
2023-04-26T21:11:22.172Z,14.20
2023-04-26T21:13:49.425Z,14.10
2023-04-26T21:16:19.460Z,14.10
2023-04-26T21:18:46.393Z,14.00
2023-04-26T21:21:13.437Z,14.00
2023-04-26T21:23:40.559Z,13.90
2023-04-26T21:26:07.997Z,13.80
2023-04-26T21:28:34.999Z,13.70
2023-04-26T21:31:06.465Z,13.70
2023-04-26T21:33:34.469Z,13.70
2023-04-26T21:36:01.394Z,13.70
2023-04-26T21:38:28.358Z,13.80
2023-04-26T21:40:55.289Z,13.80
2023-04-26T21:43:22.368Z,13.80
2023-04-26T21:45:53.150Z,13.80
2023-04-26T21:48:20.264Z,13.80
2023-04-26T21:50:50.597Z,13.70
2023-04-26T21:53:17.936Z,13.70
2023-04-26T21:55:49.536Z,13.80
2023-04-26T21:58:16.485Z,13.80
2023-04-26T22:00:44.558Z,13.80
2023-04-26T22:03:11.900Z,13.80
2023-04-26T22:05:39.167Z,13.90
2023-04-26T22:08:07.131Z,13.90
2023-04-26T22:10:34.396Z,13.90
2023-04-26T22:13:01.527Z,13.80
2023-04-26T22:15:28.872Z,13.90
2023-04-26T22:17:55.999Z,13.80
2023-04-26T22:20:22.945Z,13.80
2023-04-26T22:22:49.906Z,13.80
2023-04-26T22:25:16.819Z,13.80
2023-04-26T22:27:43.765Z,13.80
2023-04-26T22:30:23.979Z,13.80
2023-04-26T22:32:54.476Z,13.70
2023-04-26T22:35:23.001Z,13.80
2023-04-26T22:37:50.313Z,13.70
2023-04-26T22:40:17.817Z,13.80
2023-04-26T22:42:45.153Z,13.70
2023-04-26T22:45:12.936Z,13.80
2023-04-26T22:47:40.874Z,13.70
2023-04-26T22:50:08.809Z,13.70
2023-04-26T22:52:36.359Z,13.70
2023-04-26T22:55:03.331Z,13.60
2023-04-26T22:57:31.266Z,13.60
2023-04-26T22:59:58.260Z,13.60
2023-04-26T23:02:25.521Z,13.60
2023-04-26T23:04:52.519Z,13.60
2023-04-26T23:07:19.424Z,13.60
2023-04-26T23:09:47.812Z,13.60
2023-04-26T23:12:21.571Z,13.50
2023-04-26T23:14:48.775Z,13.60
2023-04-26T23:17:16.252Z,13.60
2023-04-26T23:19:43.123Z,13.50
2023-04-26T23:22:10.972Z,13.50
2023-04-26T23:24:37.866Z,13.50
2023-04-26T23:27:05.612Z,13.50
2023-04-26T23:29:32.500Z,13.50
2023-04-26T23:31:59.506Z,13.50
2023-04-26T23:34:26.543Z,13.50
2023-04-26T23:36:53.483Z,13.50
2023-04-26T23:39:20.504Z,13.40
2023-04-26T23:41:47.449Z,13.50
2023-04-26T23:44:14.359Z,13.50
2023-04-26T23:46:41.302Z,13.40
2023-04-26T23:49:08.240Z,13.40
2023-04-26T23:51:35.161Z,13.40
2023-04-26T23:54:02.122Z,13.40
2023-04-26T23:56:29.086Z,13.40
2023-04-26T23:58:56.229Z,13.40
